• Join FlightAware (Why Join?)
  • Login
  • US Flag 
11:29PM EST


 

Airport Tracker/Info


-or-


 

Live Flight TrackerFlight Track Log ✈ N498QS ✈ 18-Apr-2013 ✈ KHPN - KPBI

Flight Track Log - Related Links

Times and Time Zones

All times are in EDT time to prevent confusion due to time zone crossing. See the N498QS flight status page for this flight to view local times or setup timezone preferences in your user account.

Time Position Orientation Groundspeed Altitude Reporting Facility
EDT Latitude Longitude Course Direction KTS MPH feet Rate Location/Type
06:46PM 41.0333 -73.7333 201° Southwest 196 226 2,100  Level New York TRACON
06:47PM 41.0500 -73.8000 288° West 228 262 4,900 2,940 Climbing New York TRACON
06:48PM 41.0167 -73.8667 236° Southwest 251 289 8,000 2,880 Climbing New York TRACON
06:49PM 40.9500 -73.8833 191° South 260 299 10,700 1,980 Climbing New York TRACON
06:50PM 40.8667 -73.9167 197° South 325 374 12,000 600 Climbing New York TRACON
06:51PM 40.7833 -73.9667 204° Southwest 287 330 12,000  Level New York TRACON
06:52PM 40.4223 -74.0389 201° Southwest  Level FlightAware Approximate
06:52PM 40.7167 -74.0000 201° Southwest 272 313 12,000  Level New York TRACON
06:53PM 40.6833 -74.0833 242° Southwest 270 311 12,000  Level New York TRACON
06:54PM 40.6333 -74.1667 232° Southwest 271 312 12,000 540 Level New York TRACON
06:57PM 40.5558 -74.3356 239° Southwest 284 327 13,800 1,200 Climbing New York Center
06:57PM 40.5136 -74.4181 236° Southwest 284 327 15,700 1,080 Climbing New York Center
06:58PM 40.4439 -74.3817 158° South 243 280 16,000 120 Climbing New York Center
06:59PM 40.4117 -74.2764 112° Southeast 277 319 16,000  Level New York Center
07:00PM 40.3775 -74.1631 112° Southeast 320 368 16,000 300 Level New York Center
07:01PM 40.3192 -74.0892 136° Southeast 299 344 16,700 480 Climbing New York Center
07:02PM 40.2344 -74.1394 204° Southwest 286 329 17,000 120 Climbing New York Center
07:04PM 40.1497 -74.1817 201° Southwest 345 397 17,000 600 Level New York Center
07:04PM 40.0786 -74.2142 199° South 369 425 18,100 1,800 Climbing Washington Center
07:05PM 39.9750 -74.2756 204° Southwest 369 425 20,300 1,980 Climbing Washington Center
07:06PM 39.8883 -74.3639 218° Southwest 379 436 22,100 1,800 Climbing Washington Center
07:07PM 39.8019 -74.4517 218° Southwest 397 457 23,900 1,800 Climbing Washington Center
07:08PM 39.7194 -74.5556 224° Southwest 410 472 25,700 1,740 Climbing Washington Center
07:09PM 39.6369 -74.6672 226° Southwest 421 484 27,400 1,500 Climbing Washington Center
07:10PM 39.5525 -74.7814 226° Southwest 435 501 28,700 1,800 Climbing Washington Center
07:11PM 39.4678 -74.8953 226° Southwest 435 501 31,000 2,220 Climbing Washington Center
07:12PM 39.3828 -75.0061 225° Southwest 435 501 33,200 1,980 Climbing Washington Center
07:13PM 39.3019 -75.1169 227° Southwest 430 495 35,000 1,740 Climbing Washington Center
07:14PM 39.2211 -75.2325 228° Southwest 430 495 36,700 1,800 Climbing Washington Center
07:15PM 39.1192 -75.3133 212° Southwest 430 495 38,600 1,560 Climbing Washington Center
07:16PM 39.0111 -75.3644 200° South 425 489 39,900 900 Climbing Washington Center
07:17PM 38.9028 -75.4183 201° Southwest 420 483 40,500 660 Climbing Washington Center
07:18PM 38.7881 -75.4772 202° Southwest 432 497 41,300 720 Climbing Washington Center
07:19PM 38.6736 -75.5411 204° Southwest 444 511 42,000 840 Climbing Washington Center
07:20PM 38.5547 -75.5917 198° South 450 518 43,000 480 Climbing Washington Center
07:21PM 38.4381 -75.6528 202° Southwest 450 518 43,000  Level Washington Center
07:22PM 38.3211 -75.7081 200° South 450 518 43,000  Level Washington Center
07:23PM 38.2000 -75.7633 200° South 450 518 43,000  Level Washington Center
07:24PM 38.0811 -75.8214 201° Southwest 450 518 43,000  Level Washington Center
07:25PM 37.9622 -75.8789 201° Southwest 456 525 43,000  Level Washington Center
07:26PM 37.8431 -75.9389 202° Southwest 456 525 43,000  Level Washington Center
07:27PM 37.7136 -76.0067 203° Southwest 456 525 43,000  Level Washington Center
07:28PM 37.5944 -76.0636 201° Southwest 456 525 43,000  Level Washington Center
07:29PM 37.4753 -76.1206 201° Southwest 456 525 43,000  Level Washington Center
07:30PM 37.3625 -76.1667 198° South 461 531 43,000  Level Washington Center
07:31PM 37.2414 -76.2233 200° South 466 536 43,000  Level Washington Center
07:32PM 37.1219 -76.2822 201° Southwest 466 536 43,000  Level Washington Center
07:33PM 37.0008 -76.3383 200° South 471 542 43,000  Level Washington Center
07:34PM 36.8794 -76.3969 201° Southwest 471 542 43,000  Level Washington Center
07:35PM 36.7558 -76.4525 200° South 471 542 43,000  Level Washington Center
07:36PM 36.6239 -76.5211 203° Southwest 471 542 43,000  Level Washington Center
07:37PM 36.5025 -76.5792 201° Southwest 471 542 43,000  Level Washington Center
07:38PM 36.3811 -76.6342 200° South 471 542 43,000  Level Washington Center
07:39PM 36.2594 -76.6894 200° South 471 542 43,000  Level Washington Center
07:40PM 36.1506 -76.7367 199° South 471 542 43,000  Level Washington Center
07:41PM 36.0292 -76.7914 200° South 471 542 43,000  Level Washington Center
07:42PM 35.9136 -76.8461 201° Southwest 471 542 43,000  Level Washington Center
07:43PM 35.7942 -76.9031 201° Southwest 466 536 43,000  Level Washington Center
07:44PM 35.6767 -76.9550 200° South 460 529 43,000  Level Washington Center
07:45PM 35.5467 -77.0139 200° South 455 524 43,000  Level Washington Center
07:46PM 35.4272 -77.0681 200° South 450 518 43,000  Level Washington Center
07:47PM 35.3075 -77.1217 200° South 450 518 43,000  Level Washington Center
07:48PM 35.1878 -77.1753 200° South 455 524 43,000  Level Washington Center
07:49PM 35.0683 -77.2289 200° South 455 524 43,000  Level Washington Center
07:50PM 34.9486 -77.2822 200° South 455 524 43,000  Level Washington Center
07:51PM 34.8414 -77.3281 199° South 455 524 43,000  Level Washington Center
07:52PM 34.7092 -77.3908 201° Southwest 460 529 43,000  Level Washington Center
07:53PM 34.5894 -77.4464 201° Southwest 460 529 43,000  Level Washington Center
07:54PM 34.4636 -77.4889 196° South 460 529 43,000  Level Washington Center
07:56PM 34.2081 -77.5697 195° South 455 524 43,000  Level Jacksonville Center
07:57PM 34.0742 -77.6106 194° South 482 555 43,000  Level Jacksonville Center
07:58PM 33.9508 -77.6506 195° South 482 555 43,000  Level Jacksonville Center
07:59PM 33.8211 -77.6958 196° South 482 555 43,000  Level Jacksonville Center
08:00PM 33.6933 -77.7308 193° South 482 555 43,000  Level Jacksonville Center
08:01PM 33.5658 -77.7756 196° South 487 560 43,000  Level Jacksonville Center
08:02PM 33.4278 -77.8183 194° South 481 554 43,000  Level Jacksonville Center
08:03PM 33.3019 -77.8578 195° South 476 548 43,000  Level Jacksonville Center
08:04PM 33.1783 -77.8994 196° South 470 541 43,000  Level Jacksonville Center
08:05PM 33.0547 -77.9361 194° South 465 535 43,000  Level Jacksonville Center
08:06PM 32.9267 -77.9753 194° South 470 541 43,000  Level Jacksonville Center
08:07PM 32.7969 -78.0169 195° South 470 541 43,000  Level Jacksonville Center
08:08PM 32.6669 -78.0561 194° South 480 552 43,000  Level Jacksonville Center
08:09PM 32.5392 -78.0975 195° South 480 552 43,000  Level Jacksonville Center
08:10PM 32.4050 -78.1364 194° South 486 559 43,000  Level Jacksonville Center
08:11PM 32.2728 -78.1728 193° South 486 559 43,000  Level Jacksonville Center
08:12PM 32.1408 -78.2164 196° South 491 565 43,000  Level Jacksonville Center
08:13PM 32.0067 -78.2625 196° South 491 565 43,000  Level Jacksonville Center
08:14PM 31.8789 -78.3031 195° South 486 559 43,000  Level Jacksonville Center
08:15PM 31.7467 -78.3464 196° South 486 559 43,000  Level Jacksonville Center
08:16PM 31.6147 -78.3894 196° South 491 565 43,000  Level Jacksonville Center
08:17PM 31.4844 -78.4272 194° South 491 565 43,000  Level Jacksonville Center
08:18PM 31.3525 -78.4725 196° South 491 565 43,000  Level Jacksonville Center
08:19PM 31.2225 -78.5128 195° South 491 565 43,000  Level Jacksonville Center
08:20PM 31.0903 -78.5553 195° South 491 565 43,000  Level Jacksonville Center
08:21PM 30.9581 -78.5928 194° South 491 565 43,000  Level Jacksonville Center
08:22PM 30.8342 -78.6372 197° South 486 559 43,000  Level Jacksonville Center
08:23PM 30.6936 -78.6772 194° South 491 565 43,000  Level Jacksonville Center
08:24PM 30.5747 -78.7175 196° South 491 565 43,000  Level Miami Center
08:25PM 30.4594 -78.7589 197° South 471 542 43,000  Level Miami Center
08:26PM 30.3297 -78.8044 197° South 473 544 43,000  Level Miami Center
08:27PM 30.1978 -78.8500 197° South 486 559 43,000 -60 Level Miami Center
08:28PM 30.0678 -78.8981 198° South 486 559 42,900  Descending Miami Center
08:29PM 29.9461 -78.9508 201° Southwest 486 559 43,000  Climbing Miami Center
08:30PM 29.8142 -78.9914 195° South 486 559 43,000  Level Miami Center
08:31PM 29.6761 -79.0147 188° South 486 559 43,000  Level Miami Center
08:32PM 29.5422 -79.0383 189° South 493 567 43,000  Level Miami Center
08:33PM 29.4106 -79.0644 190° South 493 567 43,000  Level Miami Center
08:34PM 29.2828 -79.0950 192° South 488 562 43,000  Level Miami Center
08:35PM 29.1425 -79.1183 188° South 488 562 43,000 -660 Level Miami Center
08:36PM 28.9942 -79.1439 189° South 488 562 41,700 -1,920 Descending Miami Center
08:37PM 28.8517 -79.1717 190° South 505 581 39,200 -2,580 Descending Miami Center
08:38PM 28.7114 -79.1972 189° South 510 587 36,600 -2,580 Descending Miami Center
08:39PM 28.5714 -79.2203 188° South 510 587 34,100 -2,940 Descending Miami Center
08:40PM 28.4392 -79.2669 197° South 505 581 30,800 -3,000 Descending Miami Center
08:41PM 28.3128 -79.3258 202° Southwest 499 574 28,200 -2,340 Descending Miami Center
08:42PM 28.1969 -79.3819 203° Southwest 479 551 26,200 -2,040 Descending Miami Center
08:43PM 28.0875 -79.4336 203° Southwest 450 518 24,200 -1,920 Descending Miami Center
08:44PM 27.9781 -79.4853 203° Southwest 437 503 22,400 -8,100 Descending Miami Center
08:45PM 27.8728 -79.5347 203° Southwest 418 481 8,000 -1,800 Descending Miami Center
08:46PM 27.7739 -79.5817 203° Southwest 394 453 18,800 4,500 Climbing Miami Center
08:47PM 27.6833 -79.6239 202° Southwest 389 448 17,100 -1,680 Descending Miami Center
08:48PM 27.5842 -79.6683 202° Southwest 389 448 15,500 -1,800 Descending Miami Center
08:49PM 27.4789 -79.7197 203° Southwest 381 438 13,600 -1,680 Descending Miami Center
08:50PM 27.3925 -79.7597 202° Southwest 364 419 12,200 -1,380 Descending Miami Center
08:51PM 27.3144 -79.7975 203° Southwest 326 375 10,900 -1,320 Descending Miami Center
08:52PM 27.2469 -79.8261 201° Southwest 293 337 9,600 -1,200 Descending Miami Center
08:53PM 27.1775 -79.8594 203° Southwest 287 330 8,500 -840 Descending Miami Center
08:54PM 27.0972 -79.9017 205° Southwest 287 330 8,000 -300 Descending Miami Center
08:55PM 27.0275 -79.9417 207° Southwest 287 330 8,000  Level Miami Center
08:56PM 26.9556 -79.9842 208° Southwest 287 330 8,000 -240 Level Miami Center
08:57PM 26.9003 -80.0317 217° Southwest 294 338 7,600 -1,020 Descending Miami Center
08:58PM 26.8492 -80.0744 217° Southwest 257 296 6,000 -2,160 Descending Miami Center
08:59PM 26.8206 -80.1411 244° Southwest 221 254 3,300 -2,700 Descending Miami Center
09:01PM 26.7845 -80.2951 255° West  Level FlightAware Approximate
09:08PM 26.6832 -80.0956 110° East  Level Estimated
09:09PM 26.6832 -80.0956 110° East  Level Estimated
09:10PM 26.6832 -80.0956 110° East  Level Estimated
09:11PM 26.6832 -80.0956 110° East  Level Estimated
09:12PM 26.6832 -80.0956 110° East  Level Estimated
09:13PM 26.6832 -80.0956 110° East  Level Estimated